sensor_id;sensor_type;location;lat;lon;timestamp;P1;durP1;ratioP1;P2;durP2;ratioP2
3337;SDS011;1682;49.286;10.788;2023-11-21T00:01:38;2.70;;;2.30;;
3337;SDS011;1682;49.286;10.788;2023-11-21T00:04:05;2.83;;;2.17;;
3337;SDS011;1682;49.286;10.788;2023-11-21T00:06:33;7.70;;;1.90;;
3337;SDS011;1682;49.286;10.788;2023-11-21T00:09:00;3.90;;;2.00;;
3337;SDS011;1682;49.286;10.788;2023-11-21T00:11:27;2.13;;;1.40;;
3337;SDS011;1682;49.286;10.788;2023-11-21T00:13:55;3.37;;;1.90;;
3337;SDS011;1682;49.286;10.788;2023-11-21T00:16:23;2.83;;;1.47;;
3337;SDS011;1682;49.286;10.788;2023-11-21T00:18:52;2.17;;;1.70;;
3337;SDS011;1682;49.286;10.788;2023-11-21T00:21:19;2.80;;;1.63;;
3337;SDS011;1682;49.286;10.788;2023-11-21T00:23:47;1.83;;;1.47;;
3337;SDS011;1682;49.286;10.788;2023-11-21T00:26:14;1.33;;;1.23;;
3337;SDS011;1682;49.286;10.788;2023-11-21T00:28:41;3.83;;;1.10;;
3337;SDS011;1682;49.286;10.788;2023-11-21T00:31:08;3.20;;;1.43;;
3337;SDS011;1682;49.286;10.788;2023-11-21T00:33:35;2.90;;;1.77;;
3337;SDS011;1682;49.286;10.788;2023-11-21T00:36:04;3.03;;;2.53;;
3337;SDS011;1682;49.286;10.788;2023-11-21T00:38:34;1.77;;;1.67;;
3337;SDS011;1682;49.286;10.788;2023-11-21T00:41:03;4.00;;;1.53;;
3337;SDS011;1682;49.286;10.788;2023-11-21T00:43:30;1.43;;;1.27;;
3337;SDS011;1682;49.286;10.788;2023-11-21T00:45:58;2.00;;;1.43;;
3337;SDS011;1682;49.286;10.788;2023-11-21T00:48:25;2.63;;;1.23;;
3337;SDS011;1682;49.286;10.788;2023-11-21T00:50:52;1.27;;;1.17;;
3337;SDS011;1682;49.286;10.788;2023-11-21T00:53:22;2.23;;;1.47;;
3337;SDS011;1682;49.286;10.788;2023-11-21T00:55:49;2.07;;;1.87;;
3337;SDS011;1682;49.286;10.788;2023-11-21T00:58:17;1.20;;;1.10;;
3337;SDS011;1682;49.286;10.788;2023-11-21T01:00:44;2.53;;;1.40;;
3337;SDS011;1682;49.286;10.788;2023-11-21T01:03:13;3.30;;;3.00;;
3337;SDS011;1682;49.286;10.788;2023-11-21T01:05:41;1.30;;;1.20;;
3337;SDS011;1682;49.286;10.788;2023-11-21T01:08:08;1.40;;;1.30;;
3337;SDS011;1682;49.286;10.788;2023-11-21T01:10:37;2.53;;;1.60;;
3337;SDS011;1682;49.286;10.788;2023-11-21T01:13:04;1.83;;;1.03;;
3337;SDS011;1682;49.286;10.788;2023-11-21T01:15:32;2.10;;;1.17;;
3337;SDS011;1682;49.286;10.788;2023-11-21T01:17:59;3.23;;;2.87;;
3337;SDS011;1682;49.286;10.788;2023-11-21T01:20:26;1.47;;;1.17;;
3337;SDS011;1682;49.286;10.788;2023-11-21T01:22:53;2.20;;;1.83;;
3337;SDS011;1682;49.286;10.788;2023-11-21T01:25:21;1.63;;;1.53;;
3337;SDS011;1682;49.286;10.788;2023-11-21T01:27:49;1.77;;;1.10;;
3337;SDS011;1682;49.286;10.788;2023-11-21T01:30:17;2.43;;;1.20;;
3337;SDS011;1682;49.286;10.788;2023-11-21T01:32:44;3.93;;;1.70;;
3337;SDS011;1682;49.286;10.788;2023-11-21T01:35:11;5.30;;;3.50;;
3337;SDS011;1682;49.286;10.788;2023-11-21T01:37:38;4.83;;;1.80;;
3337;SDS011;1682;49.286;10.788;2023-11-21T01:40:06;6.20;;;1.93;;
3337;SDS011;1682;49.286;10.788;2023-11-21T01:42:38;1.93;;;1.40;;
3337;SDS011;1682;49.286;10.788;2023-11-21T01:45:07;3.43;;;1.40;;
3337;SDS011;1682;49.286;10.788;2023-11-21T01:47:34;3.33;;;2.43;;
3337;SDS011;1682;49.286;10.788;2023-11-21T01:50:02;9.90;;;1.80;;
3337;SDS011;1682;49.286;10.788;2023-11-21T01:52:29;1.73;;;1.50;;
3337;SDS011;1682;49.286;10.788;2023-11-21T01:54:57;2.20;;;2.00;;
3337;SDS011;1682;49.286;10.788;2023-11-21T01:57:25;2.60;;;1.67;;
3337;SDS011;1682;49.286;10.788;2023-11-21T01:59:52;1.80;;;1.50;;
3337;SDS011;1682;49.286;10.788;2023-11-21T02:02:22;2.53;;;1.80;;
3337;SDS011;1682;49.286;10.788;2023-11-21T02:04:49;4.03;;;2.30;;
3337;SDS011;1682;49.286;10.788;2023-11-21T02:07:16;1.97;;;1.67;;
3337;SDS011;1682;49.286;10.788;2023-11-21T02:09:44;4.13;;;2.03;;
3337;SDS011;1682;49.286;10.788;2023-11-21T02:12:13;2.00;;;1.40;;
3337;SDS011;1682;49.286;10.788;2023-11-21T02:14:41;2.20;;;1.50;;
3337;SDS011;1682;49.286;10.788;2023-11-21T02:17:08;1.57;;;1.47;;
3337;SDS011;1682;49.286;10.788;2023-11-21T02:19:37;2.70;;;1.20;;
3337;SDS011;1682;49.286;10.788;2023-11-21T02:22:04;2.40;;;1.67;;
3337;SDS011;1682;49.286;10.788;2023-11-21T02:24:33;1.90;;;1.47;;
3337;SDS011;1682;49.286;10.788;2023-11-21T02:27:00;3.03;;;1.77;;
3337;SDS011;1682;49.286;10.788;2023-11-21T02:29:27;1.53;;;1.43;;
3337;SDS011;1682;49.286;10.788;2023-11-21T02:31:55;1.93;;;1.73;;
3337;SDS011;1682;49.286;10.788;2023-11-21T02:34:22;1.33;;;1.23;;
3337;SDS011;1682;49.286;10.788;2023-11-21T02:36:50;1.93;;;1.77;;
3337;SDS011;1682;49.286;10.788;2023-11-21T02:39:18;2.23;;;2.03;;
3337;SDS011;1682;49.286;10.788;2023-11-21T02:41:48;1.90;;;1.80;;
3337;SDS011;1682;49.286;10.788;2023-11-21T02:44:16;2.70;;;1.20;;
3337;SDS011;1682;49.286;10.788;2023-11-21T02:46:43;1.47;;;1.37;;
3337;SDS011;1682;49.286;10.788;2023-11-21T02:49:10;6.80;;;1.50;;
3337;SDS011;1682;49.286;10.788;2023-11-21T02:51:37;1.30;;;0.90;;
3337;SDS011;1682;49.286;10.788;2023-11-21T02:54:05;1.87;;;1.70;;
3337;SDS011;1682;49.286;10.788;2023-11-21T02:56:33;1.20;;;1.20;;
3337;SDS011;1682;49.286;10.788;2023-11-21T02:59:01;2.40;;;2.20;;
3337;SDS011;1682;49.286;10.788;2023-11-21T03:01:30;2.73;;;1.30;;
3337;SDS011;1682;49.286;10.788;2023-11-21T03:03:57;1.63;;;1.53;;
3337;SDS011;1682;49.286;10.788;2023-11-21T03:06:24;1.67;;;1.57;;
3337;SDS011;1682;49.286;10.788;2023-11-21T03:08:52;1.60;;;1.50;;
3337;SDS011;1682;49.286;10.788;2023-11-21T03:11:19;1.70;;;1.60;;
3337;SDS011;1682;49.286;10.788;2023-11-21T03:13:46;1.60;;;1.50;;
3337;SDS011;1682;49.286;10.788;2023-11-21T03:16:15;1.53;;;1.30;;
3337;SDS011;1682;49.286;10.788;2023-11-21T03:18:44;3.27;;;1.83;;
3337;SDS011;1682;49.286;10.788;2023-11-21T03:21:11;1.77;;;1.67;;
3337;SDS011;1682;49.286;10.788;2023-11-21T03:23:38;4.03;;;1.73;;
3337;SDS011;1682;49.286;10.788;2023-11-21T03:26:06;1.87;;;1.70;;
3337;SDS011;1682;49.286;10.788;2023-11-21T03:28:34;2.17;;;2.00;;
3337;SDS011;1682;49.286;10.788;2023-11-21T03:31:01;2.27;;;2.10;;
3337;SDS011;1682;49.286;10.788;2023-11-21T03:33:29;1.60;;;1.50;;
3337;SDS011;1682;49.286;10.788;2023-11-21T03:35:57;4.83;;;1.77;;
3337;SDS011;1682;49.286;10.788;2023-11-21T03:38:24;2.23;;;1.23;;
3337;SDS011;1682;49.286;10.788;2023-11-21T03:40:51;5.33;;;1.30;;
3337;SDS011;1682;49.286;10.788;2023-11-21T03:43:18;1.33;;;1.33;;
3337;SDS011;1682;49.286;10.788;2023-11-21T03:45:46;1.23;;;1.13;;
3337;SDS011;1682;49.286;10.788;2023-11-21T03:48:13;4.23;;;1.57;;
3337;SDS011;1682;49.286;10.788;2023-11-21T03:50:42;2.30;;;2.07;;
3337;SDS011;1682;49.286;10.788;2023-11-21T03:53:10;2.90;;;1.70;;
3337;SDS011;1682;49.286;10.788;2023-11-21T03:55:37;1.90;;;1.80;;
3337;SDS011;1682;49.286;10.788;2023-11-21T03:58:04;4.90;;;1.70;;
3337;SDS011;1682;49.286;10.788;2023-11-21T04:00:31;3.30;;;2.13;;
3337;SDS011;1682;49.286;10.788;2023-11-21T04:02:58;2.30;;;1.90;;
3337;SDS011;1682;49.286;10.788;2023-11-21T04:05:26;3.10;;;2.57;;
3337;SDS011;1682;49.286;10.788;2023-11-21T04:07:54;2.90;;;2.70;;
3337;SDS011;1682;49.286;10.788;2023-11-21T04:10:21;3.00;;;2.80;;
3337;SDS011;1682;49.286;10.788;2023-11-21T04:12:48;3.17;;;2.87;;
3337;SDS011;1682;49.286;10.788;2023-11-21T04:15:16;3.03;;;2.73;;
3337;SDS011;1682;49.286;10.788;2023-11-21T04:17:43;4.17;;;2.47;;
3337;SDS011;1682;49.286;10.788;2023-11-21T04:20:10;6.00;;;2.30;;
3337;SDS011;1682;49.286;10.788;2023-11-21T04:22:38;3.73;;;2.57;;
3337;SDS011;1682;49.286;10.788;2023-11-21T04:25:10;3.17;;;2.87;;
3337;SDS011;1682;49.286;10.788;2023-11-21T04:27:38;3.93;;;2.40;;
3337;SDS011;1682;49.286;10.788;2023-11-21T04:30:05;3.30;;;3.00;;
3337;SDS011;1682;49.286;10.788;2023-11-21T04:32:33;2.97;;;2.77;;
3337;SDS011;1682;49.286;10.788;2023-11-21T04:35:00;3.03;;;2.83;;
3337;SDS011;1682;49.286;10.788;2023-11-21T04:37:29;2.57;;;2.37;;
3337;SDS011;1682;49.286;10.788;2023-11-21T04:39:56;2.43;;;2.23;;
3337;SDS011;1682;49.286;10.788;2023-11-21T04:42:24;2.43;;;2.20;;
3337;SDS011;1682;49.286;10.788;2023-11-21T04:44:52;5.20;;;4.70;;
3337;SDS011;1682;49.286;10.788;2023-11-21T04:47:19;4.80;;;2.77;;
3337;SDS011;1682;49.286;10.788;2023-11-21T04:49:47;4.63;;;2.97;;
3337;SDS011;1682;49.286;10.788;2023-11-21T04:52:14;8.13;;;7.33;;
3337;SDS011;1682;49.286;10.788;2023-11-21T04:54:42;5.40;;;4.50;;
3337;SDS011;1682;49.286;10.788;2023-11-21T04:57:09;3.80;;;3.40;;
3337;SDS011;1682;49.286;10.788;2023-11-21T04:59:37;4.47;;;4.03;;
3337;SDS011;1682;49.286;10.788;2023-11-21T05:02:04;3.97;;;3.30;;
3337;SDS011;1682;49.286;10.788;2023-11-21T05:04:31;3.50;;;3.30;;
3337;SDS011;1682;49.286;10.788;2023-11-21T05:06:58;8.90;;;3.87;;
3337;SDS011;1682;49.286;10.788;2023-11-21T05:09:26;4.33;;;4.03;;
3337;SDS011;1682;49.286;10.788;2023-11-21T05:11:57;9.00;;;4.80;;
3337;SDS011;1682;49.286;10.788;2023-11-21T05:14:25;5.30;;;4.80;;
3337;SDS011;1682;49.286;10.788;2023-11-21T05:16:54;4.60;;;4.30;;
3337;SDS011;1682;49.286;10.788;2023-11-21T05:19:21;7.43;;;5.87;;
3337;SDS011;1682;49.286;10.788;2023-11-21T05:21:48;5.70;;;5.20;;
3337;SDS011;1682;49.286;10.788;2023-11-21T05:24:15;9.80;;;5.10;;
3337;SDS011;1682;49.286;10.788;2023-11-21T05:26:43;5.60;;;5.07;;
3337;SDS011;1682;49.286;10.788;2023-11-21T05:29:10;9.03;;;6.00;;
3337;SDS011;1682;49.286;10.788;2023-11-21T05:31:37;8.50;;;5.53;;
3337;SDS011;1682;49.286;10.788;2023-11-21T05:34:05;6.87;;;4.80;;
3337;SDS011;1682;49.286;10.788;2023-11-21T05:36:33;18.33;;;6.37;;
3337;SDS011;1682;49.286;10.788;2023-11-21T05:39:00;8.87;;;7.37;;
3337;SDS011;1682;49.286;10.788;2023-11-21T05:41:28;5.73;;;5.07;;
3337;SDS011;1682;49.286;10.788;2023-11-21T05:43:56;9.13;;;7.17;;
3337;SDS011;1682;49.286;10.788;2023-11-21T05:46:23;14.17;;;10.40;;
3337;SDS011;1682;49.286;10.788;2023-11-21T05:48:50;12.40;;;9.60;;
3337;SDS011;1682;49.286;10.788;2023-11-21T05:51:19;15.17;;;9.30;;
3337;SDS011;1682;49.286;10.788;2023-11-21T05:53:46;9.23;;;8.37;;
3337;SDS011;1682;49.286;10.788;2023-11-21T05:56:13;13.10;;;9.30;;
3337;SDS011;1682;49.286;10.788;2023-11-21T05:58:40;7.17;;;6.30;;
3337;SDS011;1682;49.286;10.788;2023-11-21T06:01:07;22.43;;;16.90;;
3337;SDS011;1682;49.286;10.788;2023-11-21T06:03:37;16.57;;;10.27;;
3337;SDS011;1682;49.286;10.788;2023-11-21T06:06:05;12.70;;;8.47;;
3337;SDS011;1682;49.286;10.788;2023-11-21T06:08:33;9.00;;;8.00;;
3337;SDS011;1682;49.286;10.788;2023-11-21T06:11:01;9.90;;;8.70;;
3337;SDS011;1682;49.286;10.788;2023-11-21T06:13:28;13.60;;;10.40;;
3337;SDS011;1682;49.286;10.788;2023-11-21T06:15:55;10.17;;;7.50;;
3337;SDS011;1682;49.286;10.788;2023-11-21T06:18:23;12.37;;;10.33;;
3337;SDS011;1682;49.286;10.788;2023-11-21T06:20:53;8.50;;;7.63;;
3337;SDS011;1682;49.286;10.788;2023-11-21T06:23:20;8.53;;;7.70;;
3337;SDS011;1682;49.286;10.788;2023-11-21T06:25:48;10.87;;;9.93;;
3337;SDS011;1682;49.286;10.788;2023-11-21T06:28:15;8.83;;;8.03;;
3337;SDS011;1682;49.286;10.788;2023-11-21T06:30:43;7.60;;;6.20;;
3337;SDS011;1682;49.286;10.788;2023-11-21T06:33:11;9.37;;;8.47;;
3337;SDS011;1682;49.286;10.788;2023-11-21T06:35:38;7.97;;;6.90;;
3337;SDS011;1682;49.286;10.788;2023-11-21T06:38:05;10.00;;;8.00;;
3337;SDS011;1682;49.286;10.788;2023-11-21T06:40:34;5.90;;;5.07;;
3337;SDS011;1682;49.286;10.788;2023-11-21T06:43:02;7.07;;;6.20;;
3337;SDS011;1682;49.286;10.788;2023-11-21T06:45:30;6.57;;;5.50;;
3337;SDS011;1682;49.286;10.788;2023-11-21T06:47:57;7.20;;;6.10;;
3337;SDS011;1682;49.286;10.788;2023-11-21T06:50:24;6.20;;;4.50;;
3337;SDS011;1682;49.286;10.788;2023-11-21T06:52:51;11.43;;;5.33;;
3337;SDS011;1682;49.286;10.788;2023-11-21T06:55:18;8.43;;;4.80;;
3337;SDS011;1682;49.286;10.788;2023-11-21T06:57:45;6.40;;;5.33;;
3337;SDS011;1682;49.286;10.788;2023-11-21T07:00:15;7.97;;;5.90;;
3337;SDS011;1682;49.286;10.788;2023-11-21T07:02:42;7.13;;;5.83;;
3337;SDS011;1682;49.286;10.788;2023-11-21T07:05:10;6.90;;;5.73;;
3337;SDS011;1682;49.286;10.788;2023-11-21T07:07:39;8.00;;;5.27;;
3337;SDS011;1682;49.286;10.788;2023-11-21T07:10:06;11.50;;;6.27;;
3337;SDS011;1682;49.286;10.788;2023-11-21T07:12:34;9.23;;;6.90;;
3337;SDS011;1682;49.286;10.788;2023-11-21T07:15:01;7.03;;;5.43;;
3337;SDS011;1682;49.286;10.788;2023-11-21T07:17:32;9.57;;;5.83;;
3337;SDS011;1682;49.286;10.788;2023-11-21T07:20:00;8.40;;;5.47;;
3337;SDS011;1682;49.286;10.788;2023-11-21T07:22:28;9.70;;;5.70;;
3337;SDS011;1682;49.286;10.788;2023-11-21T07:24:55;6.50;;;4.30;;
3337;SDS011;1682;49.286;10.788;2023-11-21T07:27:22;7.53;;;5.93;;
3337;SDS011;1682;49.286;10.788;2023-11-21T07:29:49;8.10;;;5.40;;
3337;SDS011;1682;49.286;10.788;2023-11-21T07:32:17;7.17;;;5.40;;
3337;SDS011;1682;49.286;10.788;2023-11-21T07:34:45;6.70;;;5.87;;
3337;SDS011;1682;49.286;10.788;2023-11-21T07:37:12;11.23;;;5.47;;
3337;SDS011;1682;49.286;10.788;2023-11-21T07:39:39;5.10;;;4.60;;
3337;SDS011;1682;49.286;10.788;2023-11-21T07:42:07;5.67;;;4.17;;
3337;SDS011;1682;49.286;10.788;2023-11-21T07:44:36;5.27;;;4.30;;
3337;SDS011;1682;49.286;10.788;2023-11-21T07:47:03;6.40;;;3.93;;
3337;SDS011;1682;49.286;10.788;2023-11-21T07:49:30;5.00;;;4.50;;
3337;SDS011;1682;49.286;10.788;2023-11-21T07:51:59;3.77;;;3.43;;
3337;SDS011;1682;49.286;10.788;2023-11-21T07:54:26;4.87;;;4.47;;
3337;SDS011;1682;49.286;10.788;2023-11-21T07:56:53;5.03;;;4.53;;
3337;SDS011;1682;49.286;10.788;2023-11-21T07:59:20;9.40;;;4.77;;
3337;SDS011;1682;49.286;10.788;2023-11-21T08:01:47;5.47;;;4.50;;
3337;SDS011;1682;49.286;10.788;2023-11-21T08:04:15;4.80;;;4.30;;
3337;SDS011;1682;49.286;10.788;2023-11-21T08:06:42;5.97;;;4.33;;
3337;SDS011;1682;49.286;10.788;2023-11-21T08:09:10;4.13;;;3.80;;
3337;SDS011;1682;49.286;10.788;2023-11-21T08:11:38;4.93;;;4.07;;
3337;SDS011;1682;49.286;10.788;2023-11-21T08:14:05;6.13;;;5.23;;
3337;SDS011;1682;49.286;10.788;2023-11-21T08:16:32;4.63;;;4.23;;
3337;SDS011;1682;49.286;10.788;2023-11-21T08:18:59;5.37;;;4.77;;
3337;SDS011;1682;49.286;10.788;2023-11-21T08:21:27;5.33;;;4.77;;
3337;SDS011;1682;49.286;10.788;2023-11-21T08:23:55;5.27;;;4.10;;
3337;SDS011;1682;49.286;10.788;2023-11-21T08:26:23;4.73;;;3.57;;
3337;SDS011;1682;49.286;10.788;2023-11-21T08:28:50;7.07;;;4.10;;
3337;SDS011;1682;49.286;10.788;2023-11-21T08:31:23;4.87;;;3.83;;
3337;SDS011;1682;49.286;10.788;2023-11-21T08:33:50;5.23;;;4.67;;
3337;SDS011;1682;49.286;10.788;2023-11-21T08:36:19;5.70;;;5.23;;
3337;SDS011;1682;49.286;10.788;2023-11-21T08:38:48;5.17;;;4.70;;
3337;SDS011;1682;49.286;10.788;2023-11-21T08:41:17;6.63;;;5.70;;
3337;SDS011;1682;49.286;10.788;2023-11-21T08:43:47;7.70;;;4.93;;
3337;SDS011;1682;49.286;10.788;2023-11-21T08:46:14;6.30;;;3.83;;
3337;SDS011;1682;49.286;10.788;2023-11-21T08:48:43;4.50;;;4.00;;
3337;SDS011;1682;49.286;10.788;2023-11-21T08:51:10;5.80;;;4.73;;
3337;SDS011;1682;49.286;10.788;2023-11-21T08:53:39;8.10;;;6.03;;
3337;SDS011;1682;49.286;10.788;2023-11-21T08:56:06;5.83;;;5.23;;
3337;SDS011;1682;49.286;10.788;2023-11-21T08:58:34;5.07;;;4.13;;
3337;SDS011;1682;49.286;10.788;2023-11-21T09:01:04;6.93;;;6.23;;
3337;SDS011;1682;49.286;10.788;2023-11-21T09:03:32;5.77;;;5.27;;
3337;SDS011;1682;49.286;10.788;2023-11-21T09:06:00;5.20;;;4.37;;
3337;SDS011;1682;49.286;10.788;2023-11-21T09:08:28;3.00;;;2.80;;
3337;SDS011;1682;49.286;10.788;2023-11-21T09:10:56;2.67;;;2.43;;
3337;SDS011;1682;49.286;10.788;2023-11-21T09:13:23;2.87;;;2.57;;
3337;SDS011;1682;49.286;10.788;2023-11-21T09:15:50;2.90;;;2.70;;
3337;SDS011;1682;49.286;10.788;2023-11-21T09:18:19;3.53;;;3.07;;
3337;SDS011;1682;49.286;10.788;2023-11-21T09:20:46;2.83;;;2.63;;
3337;SDS011;1682;49.286;10.788;2023-11-21T09:23:14;4.20;;;2.50;;
3337;SDS011;1682;49.286;10.788;2023-11-21T09:25:41;2.43;;;2.30;;
3337;SDS011;1682;49.286;10.788;2023-11-21T09:28:11;3.00;;;2.77;;
3337;SDS011;1682;49.286;10.788;2023-11-21T09:30:38;4.07;;;3.20;;
3337;SDS011;1682;49.286;10.788;2023-11-21T09:33:05;2.67;;;2.57;;
3337;SDS011;1682;49.286;10.788;2023-11-21T09:35:37;3.23;;;2.97;;
3337;SDS011;1682;49.286;10.788;2023-11-21T09:38:04;2.93;;;2.63;;
3337;SDS011;1682;49.286;10.788;2023-11-21T09:40:35;2.67;;;2.47;;
3337;SDS011;1682;49.286;10.788;2023-11-21T09:43:04;4.00;;;2.40;;
3337;SDS011;1682;49.286;10.788;2023-11-21T09:45:34;2.60;;;2.27;;
3337;SDS011;1682;49.286;10.788;2023-11-21T09:48:02;2.60;;;2.40;;
3337;SDS011;1682;49.286;10.788;2023-11-21T09:50:30;2.33;;;2.13;;
3337;SDS011;1682;49.286;10.788;2023-11-21T09:53:02;3.37;;;2.73;;
3337;SDS011;1682;49.286;10.788;2023-11-21T09:55:34;2.50;;;2.30;;
3337;SDS011;1682;49.286;10.788;2023-11-21T09:58:02;7.20;;;3.30;;
3337;SDS011;1682;49.286;10.788;2023-11-21T10:00:30;4.00;;;1.77;;
3337;SDS011;1682;49.286;10.788;2023-11-21T10:02:58;2.30;;;2.20;;
3337;SDS011;1682;49.286;10.788;2023-11-21T10:05:25;2.40;;;2.20;;
3337;SDS011;1682;49.286;10.788;2023-11-21T10:07:53;3.20;;;2.73;;
3337;SDS011;1682;49.286;10.788;2023-11-21T10:10:25;3.07;;;2.27;;
3337;SDS011;1682;49.286;10.788;2023-11-21T10:12:55;2.57;;;2.37;;
3337;SDS011;1682;49.286;10.788;2023-11-21T10:15:22;9.30;;;3.80;;
3337;SDS011;1682;49.286;10.788;2023-11-21T10:17:51;3.00;;;2.80;;
3337;SDS011;1682;49.286;10.788;2023-11-21T10:20:19;2.17;;;2.00;;
3337;SDS011;1682;49.286;10.788;2023-11-21T10:22:46;2.80;;;2.57;;
3337;SDS011;1682;49.286;10.788;2023-11-21T10:25:14;2.40;;;2.13;;
3337;SDS011;1682;49.286;10.788;2023-11-21T10:27:43;2.43;;;2.23;;
3337;SDS011;1682;49.286;10.788;2023-11-21T10:30:13;2.93;;;2.73;;
3337;SDS011;1682;49.286;10.788;2023-11-21T10:32:41;2.53;;;2.33;;
3337;SDS011;1682;49.286;10.788;2023-11-21T10:35:09;3.20;;;2.80;;
3337;SDS011;1682;49.286;10.788;2023-11-21T10:37:36;2.50;;;2.30;;
3337;SDS011;1682;49.286;10.788;2023-11-21T10:40:05;4.20;;;3.30;;
3337;SDS011;1682;49.286;10.788;2023-11-21T10:42:32;3.87;;;3.03;;
3337;SDS011;1682;49.286;10.788;2023-11-21T10:45:01;5.40;;;4.33;;
3337;SDS011;1682;49.286;10.788;2023-11-21T10:47:35;5.33;;;3.20;;
3337;SDS011;1682;49.286;10.788;2023-11-21T10:50:02;4.00;;;2.70;;
3337;SDS011;1682;49.286;10.788;2023-11-21T10:52:30;3.17;;;2.97;;
3337;SDS011;1682;49.286;10.788;2023-11-21T10:55:01;4.10;;;2.83;;
3337;SDS011;1682;49.286;10.788;2023-11-21T10:57:28;4.63;;;4.20;;
3337;SDS011;1682;49.286;10.788;2023-11-21T10:59:56;2.37;;;2.17;;
3337;SDS011;1682;49.286;10.788;2023-11-21T11:02:25;2.80;;;2.60;;
3337;SDS011;1682;49.286;10.788;2023-11-21T11:04:53;5.27;;;4.23;;
3337;SDS011;1682;49.286;10.788;2023-11-21T11:07:22;3.57;;;3.27;;
3337;SDS011;1682;49.286;10.788;2023-11-21T11:09:52;4.70;;;3.00;;
3337;SDS011;1682;49.286;10.788;2023-11-21T11:12:19;3.60;;;3.30;;
3337;SDS011;1682;49.286;10.788;2023-11-21T11:14:47;6.30;;;4.30;;
3337;SDS011;1682;49.286;10.788;2023-11-21T11:17:14;4.17;;;3.77;;
3337;SDS011;1682;49.286;10.788;2023-11-21T11:19:43;4.27;;;3.60;;
3337;SDS011;1682;49.286;10.788;2023-11-21T11:22:14;5.40;;;3.00;;
3337;SDS011;1682;49.286;10.788;2023-11-21T11:24:49;3.07;;;2.90;;
3337;SDS011;1682;49.286;10.788;2023-11-21T11:27:23;3.90;;;3.57;;
3337;SDS011;1682;49.286;10.788;2023-11-21T11:29:55;3.83;;;3.13;;
3337;SDS011;1682;49.286;10.788;2023-11-21T11:32:30;3.10;;;2.80;;
3337;SDS011;1682;49.286;10.788;2023-11-21T11:35:04;3.43;;;3.20;;
3337;SDS011;1682;49.286;10.788;2023-11-21T11:37:33;4.50;;;2.73;;
3337;SDS011;1682;49.286;10.788;2023-11-21T11:40:00;3.53;;;3.23;;
3337;SDS011;1682;49.286;10.788;2023-11-21T11:42:28;7.37;;;4.07;;
3337;SDS011;1682;49.286;10.788;2023-11-21T11:44:55;3.83;;;3.40;;
3337;SDS011;1682;49.286;10.788;2023-11-21T11:47:23;4.50;;;4.00;;
3337;SDS011;1682;49.286;10.788;2023-11-21T11:49:56;4.73;;;4.00;;
3337;SDS011;1682;49.286;10.788;2023-11-21T11:52:35;3.50;;;3.20;;
3337;SDS011;1682;49.286;10.788;2023-11-21T11:55:03;12.70;;;9.83;;
3337;SDS011;1682;49.286;10.788;2023-11-21T11:57:31;5.03;;;4.63;;
3337;SDS011;1682;49.286;10.788;2023-11-21T12:00:11;4.80;;;4.33;;
3337;SDS011;1682;49.286;10.788;2023-11-21T12:02:41;5.90;;;4.53;;
3337;SDS011;1682;49.286;10.788;2023-11-21T12:05:09;9.10;;;5.30;;
3337;SDS011;1682;49.286;10.788;2023-11-21T12:07:41;8.87;;;6.30;;
3337;SDS011;1682;49.286;10.788;2023-11-21T12:10:10;8.10;;;5.87;;
3337;SDS011;1682;49.286;10.788;2023-11-21T12:12:42;4.43;;;4.03;;
3337;SDS011;1682;49.286;10.788;2023-11-21T12:15:10;9.83;;;3.20;;
3337;SDS011;1682;49.286;10.788;2023-11-21T12:17:37;4.83;;;2.97;;
3337;SDS011;1682;49.286;10.788;2023-11-21T12:20:05;4.27;;;3.30;;
3337;SDS011;1682;49.286;10.788;2023-11-21T12:22:39;4.27;;;3.87;;
3337;SDS011;1682;49.286;10.788;2023-11-21T12:25:08;20.70;;;4.13;;
3337;SDS011;1682;49.286;10.788;2023-11-21T12:27:40;3.87;;;3.57;;
3337;SDS011;1682;49.286;10.788;2023-11-21T12:30:07;4.07;;;3.77;;
3337;SDS011;1682;49.286;10.788;2023-11-21T12:32:38;4.23;;;3.83;;
3337;SDS011;1682;49.286;10.788;2023-11-21T12:35:06;4.07;;;3.70;;
3337;SDS011;1682;49.286;10.788;2023-11-21T12:37:35;3.33;;;3.03;;
3337;SDS011;1682;49.286;10.788;2023-11-21T12:40:03;7.10;;;3.70;;
3337;SDS011;1682;49.286;10.788;2023-11-21T12:42:33;4.30;;;3.90;;
3337;SDS011;1682;49.286;10.788;2023-11-21T12:45:10;5.27;;;3.67;;
3337;SDS011;1682;49.286;10.788;2023-11-21T12:47:41;13.00;;;4.97;;
3337;SDS011;1682;49.286;10.788;2023-11-21T12:50:08;5.33;;;4.07;;
3337;SDS011;1682;49.286;10.788;2023-11-21T12:52:40;4.13;;;3.47;;
3337;SDS011;1682;49.286;10.788;2023-11-21T12:55:09;3.33;;;3.13;;
3337;SDS011;1682;49.286;10.788;2023-11-21T12:57:42;2.90;;;2.60;;
3337;SDS011;1682;49.286;10.788;2023-11-21T13:00:10;3.90;;;3.63;;
3337;SDS011;1682;49.286;10.788;2023-11-21T13:02:41;7.20;;;3.20;;
3337;SDS011;1682;49.286;10.788;2023-11-21T13:05:08;3.90;;;3.50;;
3337;SDS011;1682;49.286;10.788;2023-11-21T13:07:46;4.13;;;3.70;;
3337;SDS011;1682;49.286;10.788;2023-11-21T13:10:14;7.40;;;4.27;;
3337;SDS011;1682;49.286;10.788;2023-11-21T13:12:44;7.77;;;5.47;;
3337;SDS011;1682;49.286;10.788;2023-11-21T13:15:13;6.93;;;5.07;;
3337;SDS011;1682;49.286;10.788;2023-11-21T13:17:42;5.60;;;4.50;;
3337;SDS011;1682;49.286;10.788;2023-11-21T13:20:10;10.30;;;6.73;;
3337;SDS011;1682;49.286;10.788;2023-11-21T13:22:45;7.17;;;6.10;;
3337;SDS011;1682;49.286;10.788;2023-11-21T13:25:14;7.10;;;5.50;;
3337;SDS011;1682;49.286;10.788;2023-11-21T13:27:44;7.97;;;5.97;;
3337;SDS011;1682;49.286;10.788;2023-11-21T13:30:12;5.80;;;5.30;;
3337;SDS011;1682;49.286;10.788;2023-11-21T13:32:42;6.17;;;4.00;;
3337;SDS011;1682;49.286;10.788;2023-11-21T13:35:09;5.77;;;4.40;;
3337;SDS011;1682;49.286;10.788;2023-11-21T13:37:46;4.37;;;4.07;;
3337;SDS011;1682;49.286;10.788;2023-11-21T13:40:14;5.30;;;3.77;;
3337;SDS011;1682;49.286;10.788;2023-11-21T13:42:48;6.13;;;5.00;;
3337;SDS011;1682;49.286;10.788;2023-11-21T13:45:19;4.80;;;4.30;;
3337;SDS011;1682;49.286;10.788;2023-11-21T13:47:48;4.10;;;3.57;;
3337;SDS011;1682;49.286;10.788;2023-11-21T13:50:17;4.10;;;3.70;;
3337;SDS011;1682;49.286;10.788;2023-11-21T13:52:48;3.80;;;3.40;;
3337;SDS011;1682;49.286;10.788;2023-11-21T13:55:16;4.20;;;3.60;;
3337;SDS011;1682;49.286;10.788;2023-11-21T13:57:43;3.47;;;3.17;;
3337;SDS011;1682;49.286;10.788;2023-11-21T14:00:16;7.17;;;3.60;;
3337;SDS011;1682;49.286;10.788;2023-11-21T14:02:57;3.93;;;3.63;;
3337;SDS011;1682;49.286;10.788;2023-11-21T14:05:26;3.50;;;3.30;;
3337;SDS011;1682;49.286;10.788;2023-11-21T14:07:54;5.20;;;3.50;;
3337;SDS011;1682;49.286;10.788;2023-11-21T14:10:27;3.20;;;2.90;;
3337;SDS011;1682;49.286;10.788;2023-11-21T14:13:02;5.47;;;4.13;;
3337;SDS011;1682;49.286;10.788;2023-11-21T14:15:32;3.37;;;3.07;;
3337;SDS011;1682;49.286;10.788;2023-11-21T14:18:03;3.33;;;2.70;;
3337;SDS011;1682;49.286;10.788;2023-11-21T14:20:36;4.63;;;3.33;;
3337;SDS011;1682;49.286;10.788;2023-11-21T14:23:05;6.40;;;3.90;;
3337;SDS011;1682;49.286;10.788;2023-11-21T14:25:32;5.30;;;4.47;;
3337;SDS011;1682;49.286;10.788;2023-11-21T14:28:00;7.40;;;3.80;;
3337;SDS011;1682;49.286;10.788;2023-11-21T14:30:28;4.20;;;3.70;;
3337;SDS011;1682;49.286;10.788;2023-11-21T14:32:58;2.97;;;2.77;;
3337;SDS011;1682;49.286;10.788;2023-11-21T14:35:26;7.07;;;3.53;;
3337;SDS011;1682;49.286;10.788;2023-11-21T14:37:55;5.13;;;4.00;;
3337;SDS011;1682;49.286;10.788;2023-11-21T14:40:23;4.07;;;3.67;;
3337;SDS011;1682;49.286;10.788;2023-11-21T14:42:50;5.13;;;3.80;;
3337;SDS011;1682;49.286;10.788;2023-11-21T14:45:19;3.70;;;3.50;;
3337;SDS011;1682;49.286;10.788;2023-11-21T14:47:48;4.60;;;3.70;;
3337;SDS011;1682;49.286;10.788;2023-11-21T14:50:24;5.10;;;4.43;;
3337;SDS011;1682;49.286;10.788;2023-11-21T14:53:34;6.63;;;4.00;;
3337;SDS011;1682;49.286;10.788;2023-11-21T14:56:09;5.03;;;3.83;;
3337;SDS011;1682;49.286;10.788;2023-11-21T14:58:43;3.53;;;3.23;;
3337;SDS011;1682;49.286;10.788;2023-11-21T15:01:09;3.70;;;3.40;;
3337;SDS011;1682;49.286;10.788;2023-11-21T15:03:36;8.30;;;4.60;;
3337;SDS011;1682;49.286;10.788;2023-11-21T15:06:10;5.10;;;4.60;;
3337;SDS011;1682;49.286;10.788;2023-11-21T15:08:52;4.77;;;3.93;;